createdAt,value
2022-11-03T00:01:57.877Z,83.81
2022-11-03T00:07:04.892Z,83.29
2022-11-03T00:12:13.029Z,82.82
2022-11-03T00:17:19.831Z,82.98
2022-11-03T00:22:26.693Z,82.71
2022-11-03T00:27:35.955Z,82.38
2022-11-03T00:32:42.571Z,82.71
2022-11-03T00:37:49.130Z,82.56
2022-11-03T00:42:57.319Z,82.39
2022-11-03T00:48:26.563Z,82.56
2022-11-03T00:53:34.271Z,82.48
2022-11-03T00:58:42.804Z,82.47
2022-11-03T01:04:05.697Z,81.98
2022-11-03T01:09:12.465Z,82.24
2022-11-03T01:14:20.592Z,82.21
2022-11-03T01:19:27.368Z,82.01
2022-11-03T01:24:33.955Z,80.96
2022-11-03T01:29:42.196Z,81.93
2022-11-03T01:34:48.551Z,81.39
2022-11-03T01:39:55.479Z,81.36
2022-11-03T01:45:03.703Z,81.49
2022-11-03T01:50:15.383Z,81.15
2022-11-03T01:55:26.262Z,81.22
2022-11-03T02:00:34.414Z,80.80
2022-11-03T02:05:42.083Z,80.26
2022-11-03T02:10:50.854Z,80.57
2022-11-03T02:16:01.318Z,80.75
2022-11-03T02:21:27.265Z,81.92
2022-11-03T02:26:35.981Z,81.82
2022-11-03T02:31:51.281Z,81.36
2022-11-03T02:37:04.212Z,81.33
2022-11-03T02:42:14.382Z,81.17
2022-11-03T02:47:22.302Z,80.68
2022-11-03T02:52:40.800Z,81.03
2022-11-03T02:57:55.167Z,80.62
2022-11-03T03:03:09.436Z,80.52
2022-11-03T03:08:18.140Z,80.77
2022-11-03T03:13:27.078Z,80.38
2022-11-03T03:18:44.539Z,80.65
2022-11-03T03:23:56.654Z,80.84
2022-11-03T03:29:12.444Z,80.78
2022-11-03T03:34:34.573Z,79.27
2022-11-03T03:39:45.768Z,80.37
2022-11-03T03:44:54.622Z,80.36
2022-11-03T03:50:02.654Z,79.93
2022-11-03T03:55:18.723Z,79.29
2022-11-03T04:00:26.761Z,80.25
2022-11-03T04:05:33.277Z,80.73
2022-11-03T04:10:39.634Z,80.64
2022-11-03T04:16:04.758Z,81.88
2022-11-03T04:21:32.868Z,82.08
2022-11-03T04:26:39.638Z,82.38
2022-11-03T04:31:47.671Z,82.10
2022-11-03T04:36:54.132Z,81.75
2022-11-03T04:42:00.722Z,81.98
2022-11-03T04:47:13.359Z,81.42
2022-11-03T04:52:23.147Z,80.99
2022-11-03T04:57:30.864Z,81.36
2022-11-03T05:02:38.829Z,81.40
2022-11-03T05:07:45.438Z,81.29
2022-11-03T05:12:54.277Z,80.67
2022-11-03T05:18:04.249Z,81.95
2022-11-03T05:23:14.725Z,81.79
2022-11-03T05:28:27.889Z,82.50
2022-11-03T05:33:39.121Z,81.12
2022-11-03T05:38:45.207Z,80.70
2022-11-03T05:43:59.261Z,81.26
2022-11-03T05:49:08.564Z,80.85
2022-11-03T05:54:24.061Z,81.33
2022-11-03T05:59:31.153Z,80.20
2022-11-03T06:04:40.800Z,80.32
2022-11-03T06:09:46.843Z,81.47
2022-11-03T06:14:53.946Z,81.62
2022-11-03T06:20:03.377Z,81.52
2022-11-03T06:25:22.639Z,81.72
2022-11-03T06:30:31.352Z,81.74
2022-11-03T06:35:38.710Z,83.01
2022-11-03T06:40:44.649Z,82.84
2022-11-03T06:45:57.180Z,82.36
2022-11-03T06:51:20.197Z,83.24
2022-11-03T06:56:30.367Z,83.19
2022-11-03T07:01:37.870Z,84.06
2022-11-03T07:06:52.797Z,84.44
2022-11-03T07:12:02.413Z,84.90
2022-11-03T07:17:17.199Z,84.72
2022-11-03T07:22:28.003Z,84.68
2022-11-03T07:27:38.178Z,85.52
2022-11-03T07:32:44.860Z,85.68
2022-11-03T07:37:54.201Z,85.94
2022-11-03T07:43:11.528Z,85.42
2022-11-03T07:48:24.557Z,85.82
2022-11-03T07:53:43.775Z,85.79
2022-11-03T07:58:52.814Z,86.04
2022-11-03T08:04:06.454Z,86.30
2022-11-03T08:09:14.361Z,85.96
2022-11-03T08:14:21.042Z,86.55
2022-11-03T08:19:27.530Z,85.92
2022-11-03T08:24:35.850Z,85.87
2022-11-03T08:29:42.387Z,86.38
2022-11-03T08:34:48.828Z,86.31
2022-11-03T08:39:56.858Z,86.31
2022-11-03T08:45:03.542Z,86.10
2022-11-03T08:50:10.830Z,86.43
2022-11-03T08:55:19.091Z,86.02
2022-11-03T09:00:25.767Z,86.17
2022-11-03T09:05:32.760Z,86.46
2022-11-03T09:10:43.510Z,86.22
2022-11-03T09:15:50.657Z,86.11
2022-11-03T09:20:57.613Z,86.43
2022-11-03T09:26:06.524Z,86.16
2022-11-03T09:31:13.157Z,85.82
2022-11-03T09:36:19.388Z,86.12
2022-11-03T09:41:45.876Z,85.77
2022-11-03T09:46:58.245Z,85.69
2022-11-03T09:52:06.263Z,85.35
2022-11-03T09:57:18.187Z,85.82
2022-11-03T10:02:30.422Z,84.65
2022-11-03T10:07:37.513Z,84.48
2022-11-03T10:12:45.922Z,84.41
2022-11-03T10:17:58.478Z,83.98
2022-11-03T10:23:05.003Z,83.63
2022-11-03T10:28:22.568Z,82.82
2022-11-03T10:33:33.976Z,83.21
2022-11-03T10:38:40.190Z,83.21
2022-11-03T10:44:02.271Z,82.12
2022-11-03T10:49:16.553Z,81.70
2022-11-03T10:54:25.287Z,81.36
2022-11-03T10:59:37.098Z,80.66
2022-11-03T11:04:43.678Z,80.19
2022-11-03T11:09:50.155Z,81.21
2022-11-03T11:15:00.127Z,80.81
2022-11-03T11:20:43.502Z,79.62
2022-11-03T11:26:29.992Z,78.90
2022-11-03T11:31:38.569Z,79.03
2022-11-03T11:36:48.050Z,79.04
2022-11-03T11:48:00.158Z,77.15
2022-11-03T11:53:27.610Z,77.67
2022-11-03T11:59:03.342Z,77.51
2022-11-03T12:04:20.707Z,76.39
2022-11-03T12:09:29.647Z,76.26
2022-11-03T12:14:38.262Z,76.22
2022-11-03T12:19:48.252Z,75.59
2022-11-03T12:24:56.043Z,75.77
2022-11-03T12:30:05.132Z,75.00
2022-11-03T12:35:14.159Z,76.04
2022-11-03T12:40:20.214Z,75.03
2022-11-03T12:45:26.285Z,73.30
2022-11-03T12:50:34.679Z,73.10
2022-11-03T12:55:43.794Z,72.93
2022-11-03T13:00:54.993Z,72.39
2022-11-03T13:06:05.610Z,73.28
2022-11-03T13:11:25.296Z,73.07
2022-11-03T13:16:31.332Z,74.94
2022-11-03T13:21:39.165Z,76.68
2022-11-03T13:26:45.096Z,73.46
2022-11-03T13:31:51.300Z,71.37
2022-11-03T13:36:58.986Z,72.15
2022-11-03T13:42:05.029Z,72.91
2022-11-03T13:47:11.985Z,71.68
2022-11-03T13:52:19.633Z,73.13
2022-11-03T14:08:19.265Z,72.46
2022-11-03T14:13:25.282Z,75.56
2022-11-03T14:18:31.283Z,76.27
2022-11-03T14:23:38.802Z,75.51
2022-11-03T14:28:45.250Z,75.50
2022-11-03T14:33:51.261Z,76.40
2022-11-03T14:38:58.772Z,77.73
2022-11-03T14:44:05.041Z,79.22
2022-11-03T14:49:11.354Z,78.61
2022-11-03T14:54:18.808Z,79.52
2022-11-03T14:59:25.687Z,79.74
2022-11-03T15:04:31.666Z,79.47
2022-11-03T15:09:39.127Z,79.17
2022-11-03T15:14:45.101Z,79.19
2022-11-03T15:19:51.471Z,79.04
2022-11-03T15:25:15.996Z,79.53
2022-11-03T15:30:24.794Z,79.82
2022-11-03T15:35:31.014Z,80.13
2022-11-03T15:40:38.554Z,80.11
2022-11-03T15:45:44.656Z,80.23
2022-11-03T15:50:51.155Z,80.35
2022-11-03T15:55:58.973Z,80.51
2022-11-03T16:01:06.024Z,80.34
2022-11-03T16:06:12.473Z,80.40
2022-11-03T16:11:19.919Z,80.18
2022-11-03T16:16:27.217Z,80.04
2022-11-03T16:21:33.823Z,80.30
2022-11-03T16:26:41.223Z,83.12
2022-11-03T16:31:49.488Z,84.01
2022-11-03T16:36:56.479Z,83.15
2022-11-03T16:42:05.465Z,82.62
2022-11-03T16:47:12.085Z,82.56
2022-11-03T16:52:18.917Z,82.63
2022-11-03T16:57:26.337Z,81.80
2022-11-03T17:02:40.614Z,81.34
2022-11-03T17:07:52.042Z,80.92
2022-11-03T17:13:03.063Z,81.03
2022-11-03T17:18:12.042Z,80.93
2022-11-03T17:23:18.571Z,79.88
2022-11-03T17:28:28.248Z,79.96
2022-11-03T17:33:35.172Z,79.69
2022-11-03T17:38:41.579Z,79.73
2022-11-03T17:43:50.195Z,79.25
2022-11-03T17:48:56.649Z,78.48
2022-11-03T17:54:08.800Z,78.55
2022-11-03T17:59:18.635Z,78.68
2022-11-03T18:04:25.548Z,78.60
2022-11-03T18:09:33.079Z,76.63
2022-11-03T18:14:40.827Z,76.75
2022-11-03T18:19:47.762Z,77.20
2022-11-03T18:24:54.558Z,78.47
2022-11-03T18:30:03.708Z,78.77
2022-11-03T18:35:19.218Z,79.10
2022-11-03T18:40:27.314Z,78.99
2022-11-03T18:45:36.603Z,79.73
2022-11-03T18:50:45.317Z,79.57
2022-11-03T18:55:52.583Z,79.25
2022-11-03T19:01:03.122Z,79.90
2022-11-03T19:06:16.374Z,80.69
2022-11-03T19:11:24.551Z,79.47
2022-11-03T19:16:33.359Z,80.06
2022-11-03T19:21:40.707Z,80.06
2022-11-03T19:26:56.349Z,78.64
2022-11-03T19:32:18.160Z,80.22
2022-11-03T19:37:24.996Z,78.71
2022-11-03T19:42:33.860Z,77.87
2022-11-03T19:48:10.703Z,78.14
2022-11-03T19:53:20.851Z,79.44
2022-11-03T19:58:30.454Z,79.07
2022-11-03T20:03:40.582Z,79.44
2022-11-03T20:08:50.583Z,78.83
2022-11-03T20:14:09.562Z,79.46
2022-11-03T20:19:18.353Z,79.71
2022-11-03T20:24:26.155Z,77.26
2022-11-03T20:29:34.919Z,76.67
2022-11-03T20:34:44.552Z,77.30
2022-11-03T20:39:52.283Z,78.59
2022-11-03T20:45:00.601Z,77.54
2022-11-03T20:50:11.427Z,77.18
2022-11-03T20:55:20.253Z,77.79
2022-11-03T21:00:29.093Z,79.56
2022-11-03T21:05:37.886Z,79.16
2022-11-03T21:10:45.613Z,79.28
2022-11-03T21:16:23.988Z,80.00
2022-11-03T21:21:33.519Z,79.05
2022-11-03T21:26:42.529Z,80.81
2022-11-03T21:31:49.558Z,82.70
2022-11-03T21:36:57.882Z,82.82
2022-11-03T21:42:24.008Z,82.55
2022-11-03T21:47:30.538Z,81.49
2022-11-03T21:52:38.525Z,78.40
2022-11-03T21:57:45.031Z,78.23
2022-11-03T22:02:51.599Z,79.90
2022-11-03T22:07:59.618Z,79.63
2022-11-03T22:13:07.395Z,79.92
2022-11-03T22:18:14.214Z,83.21
2022-11-03T22:23:39.565Z,82.87
2022-11-03T22:28:46.243Z,82.35
2022-11-03T22:34:09.839Z,82.68
2022-11-03T22:39:35.243Z,81.79
2022-11-03T22:44:58.932Z,80.94
2022-11-03T22:50:05.935Z,80.51
2022-11-03T22:55:14.077Z,81.71
2022-11-03T23:00:22.889Z,81.93
2022-11-03T23:05:29.470Z,82.38
2022-11-03T23:10:37.421Z,81.90
2022-11-03T23:15:44.605Z,81.88
2022-11-03T23:21:09.916Z,81.20
2022-11-03T23:26:18.894Z,81.88
2022-11-03T23:31:25.554Z,83.32
2022-11-03T23:36:32.442Z,83.05
2022-11-03T23:41:40.485Z,84.01
2022-11-03T23:47:04.565Z,85.30
2022-11-03T23:52:11.485Z,86.10
2022-11-03T23:57:36.902Z,85.63
